sensor_id;sensor_type;location;lat;lon;timestamp;pressure;altitude;pressure_sealevel;temperature;humidity
10638;BME280;47007;49.252;8.904;2022-09-09T00:02:22;99434.16;;;16.08;100.00
10638;BME280;47007;49.252;8.904;2022-09-09T00:07:43;99435.84;;;16.33;100.00
10638;BME280;47007;49.252;8.904;2022-09-09T00:16:05;99423.09;;;15.93;100.00
10638;BME280;47007;49.252;8.904;2022-09-09T00:21:38;99431.75;;;15.59;100.00
10638;BME280;47007;49.252;8.904;2022-09-09T00:24:11;99424.50;;;15.66;100.00
10638;BME280;47007;49.252;8.904;2022-09-09T00:26:45;99424.41;;;15.72;100.00
10638;BME280;47007;49.252;8.904;2022-09-09T00:29:33;99411.56;;;15.81;100.00
10638;BME280;47007;49.252;8.904;2022-09-09T00:32:12;99423.44;;;15.97;100.00
10638;BME280;47007;49.252;8.904;2022-09-09T00:34:47;99385.72;;;15.75;100.00
10638;BME280;47007;49.252;8.904;2022-09-09T00:37:15;99423.44;;;15.97;100.00
10638;BME280;47007;49.252;8.904;2022-09-09T00:39:45;99429.56;;;15.86;100.00
10638;BME280;47007;49.252;8.904;2022-09-09T00:42:29;99444.50;;;15.75;100.00
10638;BME280;47007;49.252;8.904;2022-09-09T00:48:10;99433.38;;;15.78;100.00
10638;BME280;47007;49.252;8.904;2022-09-09T00:56:13;99429.16;;;16.00;100.00
10638;BME280;47007;49.252;8.904;2022-09-09T00:58:52;99419.03;;;15.91;100.00
10638;BME280;47007;49.252;8.904;2022-09-09T01:01:20;99436.38;;;15.70;100.00
10638;BME280;47007;49.252;8.904;2022-09-09T01:03:54;99424.34;;;15.61;100.00
10638;BME280;47007;49.252;8.904;2022-09-09T01:11:50;99430.81;;;15.83;100.00
10638;BME280;47007;49.252;8.904;2022-09-09T01:14:44;99423.41;;;15.85;100.00
10638;BME280;47007;49.252;8.904;2022-09-09T01:17:22;99428.91;;;15.72;100.00
10638;BME280;47007;49.252;8.904;2022-09-09T01:26:14;99426.06;;;15.85;100.00
10638;BME280;47007;49.252;8.904;2022-09-09T01:28:44;99412.63;;;15.62;100.00
10638;BME280;47007;49.252;8.904;2022-09-09T01:31:18;99431.41;;;15.85;100.00
10638;BME280;47007;49.252;8.904;2022-09-09T01:33:47;99388.78;;;15.60;100.00
10638;BME280;47007;49.252;8.904;2022-09-09T01:36:38;99429.44;;;15.80;100.00
10638;BME280;47007;49.252;8.904;2022-09-09T01:39:06;99414.66;;;15.78;100.00
10638;BME280;47007;49.252;8.904;2022-09-09T01:41:33;99403.03;;;15.72;100.00
10638;BME280;47007;49.252;8.904;2022-09-09T01:44:09;99410.16;;;15.78;100.00
10638;BME280;47007;49.252;8.904;2022-09-09T01:46:38;99441.06;;;15.86;100.00
10638;BME280;47007;49.252;8.904;2022-09-09T01:49:11;99436.13;;;15.71;100.00
10638;BME280;47007;49.252;8.904;2022-09-09T01:51:46;99444.28;;;15.76;100.00
10638;BME280;47007;49.252;8.904;2022-09-09T01:54:17;99375.25;;;15.43;100.00
10638;BME280;47007;49.252;8.904;2022-09-09T01:57:01;99420.84;;;15.78;100.00
10638;BME280;47007;49.252;8.904;2022-09-09T01:59:48;99443.78;;;15.98;100.00
10638;BME280;47007;49.252;8.904;2022-09-09T02:02:23;99437.59;;;15.86;100.00
10638;BME280;47007;49.252;8.904;2022-09-09T02:07:52;99434.31;;;15.84;100.00
10638;BME280;47007;49.252;8.904;2022-09-09T02:10:50;99408.38;;;15.72;100.00
10638;BME280;47007;49.252;8.904;2022-09-09T02:13:32;99429.97;;;16.01;100.00
10638;BME280;47007;49.252;8.904;2022-09-09T02:16:07;99433.72;;;16.11;100.00
10638;BME280;47007;49.252;8.904;2022-09-09T02:18:54;99436.53;;;16.16;100.00
10638;BME280;47007;49.252;8.904;2022-09-09T02:21:32;99430.00;;;16.12;100.00
10638;BME280;47007;49.252;8.904;2022-09-09T02:24:08;99431.78;;;16.19;100.00
10638;BME280;47007;49.252;8.904;2022-09-09T02:26:45;99417.00;;;16.16;100.00
10638;BME280;47007;49.252;8.904;2022-09-09T02:29:21;99424.91;;;16.23;100.00
10638;BME280;47007;49.252;8.904;2022-09-09T02:31:51;99411.41;;;16.06;100.00
10638;BME280;47007;49.252;8.904;2022-09-09T02:34:23;99437.88;;;16.07;100.00
10638;BME280;47007;49.252;8.904;2022-09-09T02:36:53;99396.59;;;15.92;100.00
10638;BME280;47007;49.252;8.904;2022-09-09T02:39:21;99390.81;;;15.95;100.00
10638;BME280;47007;49.252;8.904;2022-09-09T02:41:50;99412.69;;;16.15;100.00
10638;BME280;47007;49.252;8.904;2022-09-09T02:44:18;99426.34;;;16.37;100.00
10638;BME280;47007;49.252;8.904;2022-09-09T02:49:43;99426.09;;;16.27;100.00
10638;BME280;47007;49.252;8.904;2022-09-09T02:52:30;99385.59;;;16.11;100.00
10638;BME280;47007;49.252;8.904;2022-09-09T02:55:06;99413.78;;;16.49;100.00
10638;BME280;47007;49.252;8.904;2022-09-09T02:57:37;99361.22;;;16.31;100.00
10638;BME280;47007;49.252;8.904;2022-09-09T03:00:05;99404.66;;;16.68;100.00
10638;BME280;47007;49.252;8.904;2022-09-09T03:02:33;99410.09;;;16.73;100.00
10638;BME280;47007;49.252;8.904;2022-09-09T03:05:05;99362.38;;;16.47;100.00
10638;BME280;47007;49.252;8.904;2022-09-09T03:07:32;99409.50;;;16.60;100.00
10638;BME280;47007;49.252;8.904;2022-09-09T03:10:00;99401.22;;;16.49;100.00
10638;BME280;47007;49.252;8.904;2022-09-09T03:12:27;99412.06;;;16.55;100.00
10638;BME280;47007;49.252;8.904;2022-09-09T03:14:53;99407.41;;;16.62;100.00
10638;BME280;47007;49.252;8.904;2022-09-09T03:17:20;99399.00;;;16.58;100.00
10638;BME280;47007;49.252;8.904;2022-09-09T03:19:51;99409.53;;;16.71;100.00
10638;BME280;47007;49.252;8.904;2022-09-09T03:22:20;99405.34;;;16.75;100.00
10638;BME280;47007;49.252;8.904;2022-09-09T03:24:48;99402.19;;;16.78;100.00
10638;BME280;47007;49.252;8.904;2022-09-09T03:27:14;99407.56;;;16.78;100.00
10638;BME280;47007;49.252;8.904;2022-09-09T03:29:41;99399.53;;;16.67;100.00
10638;BME280;47007;49.252;8.904;2022-09-09T03:32:13;99371.34;;;16.29;100.00
10638;BME280;47007;49.252;8.904;2022-09-09T03:34:39;99384.94;;;16.39;100.00
10638;BME280;47007;49.252;8.904;2022-09-09T03:37:10;99406.00;;;16.59;100.00
10638;BME280;47007;49.252;8.904;2022-09-09T03:39:36;99335.13;;;16.03;100.00
10638;BME280;47007;49.252;8.904;2022-09-09T03:42:03;99398.66;;;16.31;100.00
10638;BME280;47007;49.252;8.904;2022-09-09T03:44:30;99395.91;;;16.08;100.00
10638;BME280;47007;49.252;8.904;2022-09-09T03:46:57;99400.19;;;15.97;100.00
10638;BME280;47007;49.252;8.904;2022-09-09T03:49:27;99383.47;;;15.90;100.00
10638;BME280;47007;49.252;8.904;2022-09-09T03:51:56;99375.31;;;15.97;100.00
10638;BME280;47007;49.252;8.904;2022-09-09T03:54:24;99364.78;;;16.02;100.00
10638;BME280;47007;49.252;8.904;2022-09-09T03:56:51;99415.63;;;16.37;100.00
10638;BME280;47007;49.252;8.904;2022-09-09T03:59:19;99385.25;;;16.20;100.00
10638;BME280;47007;49.252;8.904;2022-09-09T04:01:47;99376.38;;;16.07;100.00
10638;BME280;47007;49.252;8.904;2022-09-09T04:04:13;99376.16;;;16.09;100.00
10638;BME280;47007;49.252;8.904;2022-09-09T04:06:40;99381.41;;;16.04;100.00
10638;BME280;47007;49.252;8.904;2022-09-09T04:09:07;99415.63;;;16.25;100.00
10638;BME280;47007;49.252;8.904;2022-09-09T04:11:34;99365.59;;;16.02;100.00
10638;BME280;47007;49.252;8.904;2022-09-09T04:14:00;99402.03;;;16.27;100.00
10638;BME280;47007;49.252;8.904;2022-09-09T04:16:28;99381.53;;;16.21;100.00
10638;BME280;47007;49.252;8.904;2022-09-09T04:18:55;99336.41;;;16.01;100.00
10638;BME280;47007;49.252;8.904;2022-09-09T04:21:22;99383.44;;;16.32;100.00
10638;BME280;47007;49.252;8.904;2022-09-09T04:23:49;99388.66;;;16.50;100.00
10638;BME280;47007;49.252;8.904;2022-09-09T04:26:16;99390.28;;;16.51;100.00
10638;BME280;47007;49.252;8.904;2022-09-09T04:28:44;99387.72;;;16.33;100.00
10638;BME280;47007;49.252;8.904;2022-09-09T04:31:18;99384.47;;;16.31;100.00
10638;BME280;47007;49.252;8.904;2022-09-09T04:33:47;99404.13;;;16.36;100.00
10638;BME280;47007;49.252;8.904;2022-09-09T04:36:15;99414.59;;;16.49;100.00
10638;BME280;47007;49.252;8.904;2022-09-09T04:38:42;99386.34;;;16.42;100.00
10638;BME280;47007;49.252;8.904;2022-09-09T04:41:11;99428.03;;;16.73;100.00
10638;BME280;47007;49.252;8.904;2022-09-09T04:43:42;99398.31;;;16.51;100.00
10638;BME280;47007;49.252;8.904;2022-09-09T04:46:09;99410.53;;;16.59;100.00
10638;BME280;47007;49.252;8.904;2022-09-09T04:48:36;99419.88;;;16.56;100.00
10638;BME280;47007;49.252;8.904;2022-09-09T04:51:06;99369.31;;;16.13;100.00
10638;BME280;47007;49.252;8.904;2022-09-09T04:53:33;99361.97;;;16.08;100.00
10638;BME280;47007;49.252;8.904;2022-09-09T04:56:05;99443.81;;;16.51;100.00
10638;BME280;47007;49.252;8.904;2022-09-09T04:58:38;99444.75;;;16.57;100.00
10638;BME280;47007;49.252;8.904;2022-09-09T05:01:18;99448.84;;;16.71;100.00
10638;BME280;47007;49.252;8.904;2022-09-09T05:03:47;99401.09;;;16.44;100.00
10638;BME280;47007;49.252;8.904;2022-09-09T05:06:20;99428.47;;;16.70;100.00
10638;BME280;47007;49.252;8.904;2022-09-09T05:08:50;99436.38;;;16.53;100.00
10638;BME280;47007;49.252;8.904;2022-09-09T05:11:24;99454.63;;;16.56;100.00
10638;BME280;47007;49.252;8.904;2022-09-09T05:13:55;99455.19;;;16.58;100.00
10638;BME280;47007;49.252;8.904;2022-09-09T05:16:23;99420.16;;;16.36;100.00
10638;BME280;47007;49.252;8.904;2022-09-09T05:18:50;99437.50;;;16.57;100.00
10638;BME280;47007;49.252;8.904;2022-09-09T05:21:20;99455.72;;;16.78;100.00
10638;BME280;47007;49.252;8.904;2022-09-09T05:23:47;99467.03;;;16.92;100.00
10638;BME280;47007;49.252;8.904;2022-09-09T05:26:19;99455.28;;;16.93;100.00
10638;BME280;47007;49.252;8.904;2022-09-09T05:28:48;99456.66;;;16.96;100.00
10638;BME280;47007;49.252;8.904;2022-09-09T05:31:16;99455.59;;;16.97;100.00
10638;BME280;47007;49.252;8.904;2022-09-09T05:33:47;99432.22;;;16.80;100.00
10638;BME280;47007;49.252;8.904;2022-09-09T05:36:19;99455.81;;;17.07;100.00
10638;BME280;47007;49.252;8.904;2022-09-09T05:38:49;99458.75;;;17.17;100.00
10638;BME280;47007;49.252;8.904;2022-09-09T05:41:17;99451.28;;;17.19;100.00
10638;BME280;47007;49.252;8.904;2022-09-09T05:43:45;99415.34;;;17.03;100.00
10638;BME280;47007;49.252;8.904;2022-09-09T05:46:16;99440.47;;;17.14;100.00
10638;BME280;47007;49.252;8.904;2022-09-09T05:48:45;99463.28;;;17.28;100.00
10638;BME280;47007;49.252;8.904;2022-09-09T05:51:22;99457.72;;;17.18;100.00
10638;BME280;47007;49.252;8.904;2022-09-09T05:53:49;99447.09;;;17.23;100.00
10638;BME280;47007;49.252;8.904;2022-09-09T05:56:20;99462.00;;;17.31;100.00
10638;BME280;47007;49.252;8.904;2022-09-09T05:58:48;99399.03;;;16.81;100.00
10638;BME280;47007;49.252;8.904;2022-09-09T06:01:19;99465.03;;;17.11;100.00
10638;BME280;47007;49.252;8.904;2022-09-09T06:03:48;99469.94;;;17.14;100.00
10638;BME280;47007;49.252;8.904;2022-09-09T06:06:17;99453.41;;;17.17;100.00
10638;BME280;47007;49.252;8.904;2022-09-09T06:08:52;99460.78;;;17.50;100.00
10638;BME280;47007;49.252;8.904;2022-09-09T06:11:24;99462.38;;;17.63;100.00
10638;BME280;47007;49.252;8.904;2022-09-09T06:13:52;99460.75;;;17.62;100.00
10638;BME280;47007;49.252;8.904;2022-09-09T06:16:22;99462.84;;;17.59;100.00
10638;BME280;47007;49.252;8.904;2022-09-09T06:18:51;99469.41;;;17.64;100.00
10638;BME280;47007;49.252;8.904;2022-09-09T06:21:23;99398.06;;;17.22;100.00
10638;BME280;47007;49.252;8.904;2022-09-09T06:23:50;99453.41;;;17.57;100.00
10638;BME280;47007;49.252;8.904;2022-09-09T06:26:29;99468.16;;;17.83;100.00
10638;BME280;47007;49.252;8.904;2022-09-09T06:28:58;99467.28;;;17.94;100.00
10638;BME280;47007;49.252;8.904;2022-09-09T06:31:29;99464.16;;;17.97;100.00
10638;BME280;47007;49.252;8.904;2022-09-09T06:34:07;99473.13;;;18.03;100.00
10638;BME280;47007;49.252;8.904;2022-09-09T06:36:38;99423.63;;;17.82;100.00
10638;BME280;47007;49.252;8.904;2022-09-09T06:39:05;99467.00;;;18.07;100.00
10638;BME280;47007;49.252;8.904;2022-09-09T06:41:38;99449.50;;;18.16;100.00
10638;BME280;47007;49.252;8.904;2022-09-09T06:44:09;99465.88;;;18.82;100.00
10638;BME280;47007;49.252;8.904;2022-09-09T06:46:40;99466.16;;;19.19;100.00
10638;BME280;47007;49.252;8.904;2022-09-09T06:49:09;99442.41;;;19.11;100.00
10638;BME280;47007;49.252;8.904;2022-09-09T06:51:37;99443.91;;;19.01;100.00
10638;BME280;47007;49.252;8.904;2022-09-09T06:54:11;99458.44;;;19.06;100.00
10638;BME280;47007;49.252;8.904;2022-09-09T06:56:52;99404.22;;;18.87;100.00
10638;BME280;47007;49.252;8.904;2022-09-09T06:59:22;99448.84;;;19.10;100.00
10638;BME280;47007;49.252;8.904;2022-09-09T07:01:53;99448.03;;;19.31;100.00
10638;BME280;47007;49.252;8.904;2022-09-09T07:04:53;99402.59;;;19.29;100.00
10638;BME280;47007;49.252;8.904;2022-09-09T07:07:20;99439.03;;;19.42;100.00
10638;BME280;47007;49.252;8.904;2022-09-09T07:09:51;99432.75;;;19.75;100.00
10638;BME280;47007;49.252;8.904;2022-09-09T07:12:18;99446.31;;;20.12;100.00
10638;BME280;47007;49.252;8.904;2022-09-09T07:14:52;99435.88;;;19.89;100.00
10638;BME280;47007;49.252;8.904;2022-09-09T07:17:22;99456.19;;;20.01;100.00
10638;BME280;47007;49.252;8.904;2022-09-09T07:19:53;99374.25;;;19.38;100.00
10638;BME280;47007;49.252;8.904;2022-09-09T07:22:21;99464.59;;;19.61;100.00
10638;BME280;47007;49.252;8.904;2022-09-09T07:24:49;99456.44;;;19.34;100.00
10638;BME280;47007;49.252;8.904;2022-09-09T07:27:16;99431.03;;;19.04;100.00
10638;BME280;47007;49.252;8.904;2022-09-09T07:29:42;99456.31;;;19.24;100.00
10638;BME280;47007;49.252;8.904;2022-09-09T07:32:09;99460.19;;;19.33;100.00
10638;BME280;47007;49.252;8.904;2022-09-09T07:34:37;99460.31;;;19.44;100.00
10638;BME280;47007;49.252;8.904;2022-09-09T07:37:04;99457.94;;;20.18;100.00
10638;BME280;47007;49.252;8.904;2022-09-09T07:39:32;99480.13;;;20.89;100.00
10638;BME280;47007;49.252;8.904;2022-09-09T07:41:59;99476.66;;;21.35;100.00
10638;BME280;47007;49.252;8.904;2022-09-09T07:44:27;99473.44;;;21.38;100.00
10638;BME280;47007;49.252;8.904;2022-09-09T07:47:02;99475.16;;;21.65;100.00
10638;BME280;47007;49.252;8.904;2022-09-09T07:49:35;99468.78;;;20.50;100.00
10638;BME280;47007;49.252;8.904;2022-09-09T07:52:03;99458.06;;;20.01;100.00
10638;BME280;47007;49.252;8.904;2022-09-09T07:54:31;99460.06;;;20.16;100.00
10638;BME280;47007;49.252;8.904;2022-09-09T07:57:00;99467.16;;;20.54;100.00
10638;BME280;47007;49.252;8.904;2022-09-09T07:59:29;99476.41;;;21.37;100.00
10638;BME280;47007;49.252;8.904;2022-09-09T08:01:57;99491.88;;;21.57;100.00
10638;BME280;47007;49.252;8.904;2022-09-09T08:04:27;99481.44;;;21.75;100.00
10638;BME280;47007;49.252;8.904;2022-09-09T08:06:57;99481.25;;;21.40;100.00
10638;BME280;47007;49.252;8.904;2022-09-09T08:09:27;99481.72;;;21.27;100.00
10638;BME280;47007;49.252;8.904;2022-09-09T08:12:02;99471.56;;;21.44;100.00
10638;BME280;47007;49.252;8.904;2022-09-09T08:14:29;99447.03;;;22.28;100.00
10638;BME280;47007;49.252;8.904;2022-09-09T08:16:57;99472.44;;;22.68;100.00
10638;BME280;47007;49.252;8.904;2022-09-09T08:19:26;99457.03;;;22.43;100.00
10638;BME280;47007;49.252;8.904;2022-09-09T08:21:57;99480.75;;;22.20;100.00
10638;BME280;47007;49.252;8.904;2022-09-09T08:24:23;99485.22;;;21.90;100.00
10638;BME280;47007;49.252;8.904;2022-09-09T08:26:51;99446.75;;;22.75;100.00
10638;BME280;47007;49.252;8.904;2022-09-09T08:29:21;99465.41;;;22.92;100.00
10638;BME280;47007;49.252;8.904;2022-09-09T08:31:52;99471.66;;;22.82;100.00
10638;BME280;47007;49.252;8.904;2022-09-09T08:34:21;99471.63;;;22.98;100.00
10638;BME280;47007;49.252;8.904;2022-09-09T08:36:50;99469.97;;;23.07;100.00
10638;BME280;47007;49.252;8.904;2022-09-09T08:39:21;99468.94;;;22.77;100.00
10638;BME280;47007;49.252;8.904;2022-09-09T08:55:52;99478.88;;;22.31;100.00
10638;BME280;47007;49.252;8.904;2022-09-09T08:58:30;99483.34;;;21.90;100.00
10638;BME280;47007;49.252;8.904;2022-09-09T09:04:33;99485.69;;;21.66;100.00
10638;BME280;47007;49.252;8.904;2022-09-09T09:12:19;99462.59;;;20.91;100.00
10638;BME280;47007;49.252;8.904;2022-09-09T09:14:48;99472.31;;;20.87;100.00
10638;BME280;47007;49.252;8.904;2022-09-09T09:17:19;99474.81;;;20.62;100.00
10638;BME280;47007;49.252;8.904;2022-09-09T09:19:49;99473.63;;;21.22;100.00
10638;BME280;47007;49.252;8.904;2022-09-09T09:22:38;99460.16;;;20.85;100.00
10638;BME280;47007;49.252;8.904;2022-09-09T09:25:23;99484.06;;;20.44;100.00
10638;BME280;47007;49.252;8.904;2022-09-09T09:30:41;99463.91;;;19.71;100.00
10638;BME280;47007;49.252;8.904;2022-09-09T09:36:02;99453.63;;;21.70;100.00
10638;BME280;47007;49.252;8.904;2022-09-09T09:39:05;99476.19;;;22.51;100.00
10638;BME280;47007;49.252;8.904;2022-09-09T09:41:53;99470.53;;;22.93;100.00
10638;BME280;47007;49.252;8.904;2022-09-09T09:44:31;99472.47;;;23.83;100.00
10638;BME280;47007;49.252;8.904;2022-09-09T09:47:17;99471.09;;;24.34;93.76
10638;BME280;47007;49.252;8.904;2022-09-09T09:50:18;99459.97;;;24.99;88.29
10638;BME280;47007;49.252;8.904;2022-09-09T09:52:59;99472.38;;;25.34;84.15
10638;BME280;47007;49.252;8.904;2022-09-09T09:55:30;99455.09;;;25.01;71.65
10638;BME280;47007;49.252;8.904;2022-09-09T09:58:06;99460.09;;;23.67;78.84
10638;BME280;47007;49.252;8.904;2022-09-09T10:00:35;99451.91;;;22.87;82.52
10638;BME280;47007;49.252;8.904;2022-09-09T10:03:34;99461.88;;;23.02;81.34
10638;BME280;47007;49.252;8.904;2022-09-09T10:06:04;99447.53;;;23.01;79.59
10638;BME280;47007;49.252;8.904;2022-09-09T10:08:34;99439.63;;;23.30;78.24
10638;BME280;47007;49.252;8.904;2022-09-09T10:13:44;99469.78;;;24.27;71.64
10638;BME280;47007;49.252;8.904;2022-09-09T10:19:10;99474.22;;;24.03;73.14
10638;BME280;47007;49.252;8.904;2022-09-09T10:38:17;99461.03;;;25.03;68.35
10638;BME280;47007;49.252;8.904;2022-09-09T10:41:00;99447.66;;;24.83;68.96
10638;BME280;47007;49.252;8.904;2022-09-09T10:51:49;99446.56;;;24.84;62.96
10638;BME280;47007;49.252;8.904;2022-09-09T10:59:57;99444.03;;;24.92;67.76
10638;BME280;47007;49.252;8.904;2022-09-09T11:02:31;99445.19;;;25.63;66.46
10638;BME280;47007;49.252;8.904;2022-09-09T11:05:08;99444.09;;;25.64;62.99
10638;BME280;47007;49.252;8.904;2022-09-09T11:07:42;99426.13;;;24.33;68.70
10638;BME280;47007;49.252;8.904;2022-09-09T11:13:15;99439.94;;;25.71;66.78
10638;BME280;47007;49.252;8.904;2022-09-09T11:15:46;99420.97;;;26.23;60.52
10638;BME280;47007;49.252;8.904;2022-09-09T11:18:20;99444.63;;;26.41;59.73
10638;BME280;47007;49.252;8.904;2022-09-09T11:21:01;99444.53;;;25.47;63.23
10638;BME280;47007;49.252;8.904;2022-09-09T11:23:42;99437.34;;;24.85;64.45
10638;BME280;47007;49.252;8.904;2022-09-09T11:26:15;99421.19;;;24.41;66.96
10638;BME280;47007;49.252;8.904;2022-09-09T11:34:54;99427.75;;;25.45;58.20
10638;BME280;47007;49.252;8.904;2022-09-09T11:42:47;99432.28;;;24.44;64.40
10638;BME280;47007;49.252;8.904;2022-09-09T11:45:23;99435.53;;;25.04;61.42
10638;BME280;47007;49.252;8.904;2022-09-09T11:48:00;99423.69;;;25.85;59.82
10638;BME280;47007;49.252;8.904;2022-09-09T11:50:37;99379.09;;;25.49;60.06
10638;BME280;47007;49.252;8.904;2022-09-09T11:55:40;99409.09;;;26.19;54.86
10638;BME280;47007;49.252;8.904;2022-09-09T12:00:45;99403.41;;;26.99;53.88
10638;BME280;47007;49.252;8.904;2022-09-09T12:03:43;99403.50;;;26.61;53.65
10638;BME280;47007;49.252;8.904;2022-09-09T12:06:31;99389.72;;;25.26;57.63
10638;BME280;47007;49.252;8.904;2022-09-09T12:09:14;99388.84;;;24.54;63.75
10638;BME280;47007;49.252;8.904;2022-09-09T12:11:51;99363.94;;;25.48;60.24
10638;BME280;47007;49.252;8.904;2022-09-09T12:19:41;99356.78;;;25.94;54.77
10638;BME280;47007;49.252;8.904;2022-09-09T12:22:31;99369.09;;;26.05;55.17
10638;BME280;47007;49.252;8.904;2022-09-09T12:25:16;99385.50;;;26.65;53.65
10638;BME280;47007;49.252;8.904;2022-09-09T12:28:25;99373.41;;;26.71;53.38
10638;BME280;47007;49.252;8.904;2022-09-09T12:33:45;99366.63;;;27.01;52.09
10638;BME280;47007;49.252;8.904;2022-09-09T12:36:20;99377.38;;;27.34;51.29
10638;BME280;47007;49.252;8.904;2022-09-09T12:38:48;99363.22;;;27.73;50.13
10638;BME280;47007;49.252;8.904;2022-09-09T12:41:22;99372.97;;;26.18;52.91
10638;BME280;47007;49.252;8.904;2022-09-09T12:43:49;99356.34;;;26.38;51.19
10638;BME280;47007;49.252;8.904;2022-09-09T12:46:26;99396.41;;;25.10;54.48
10638;BME280;47007;49.252;8.904;2022-09-09T12:48:57;99382.72;;;24.05;57.52
10638;BME280;47007;49.252;8.904;2022-09-09T12:51:29;99321.88;;;24.31;59.51
10638;BME280;47007;49.252;8.904;2022-09-09T12:53:58;99364.19;;;25.27;57.32
10638;BME280;47007;49.252;8.904;2022-09-09T12:56:31;99381.38;;;25.41;57.24
10638;BME280;47007;49.252;8.904;2022-09-09T12:58:59;99364.63;;;25.96;54.76
10638;BME280;47007;49.252;8.904;2022-09-09T13:01:29;99389.41;;;25.09;56.79
10638;BME280;47007;49.252;8.904;2022-09-09T13:03:57;99359.47;;;23.98;62.04
10638;BME280;47007;49.252;8.904;2022-09-09T13:06:25;99393.78;;;24.47;62.98
10638;BME280;47007;49.252;8.904;2022-09-09T13:08:56;99343.88;;;23.85;63.69
10638;BME280;47007;49.252;8.904;2022-09-09T13:11:33;99367.06;;;23.52;67.91
10638;BME280;47007;49.252;8.904;2022-09-09T13:14:02;99369.41;;;23.05;71.03
10638;BME280;47007;49.252;8.904;2022-09-09T13:16:31;99395.69;;;22.99;71.03
10638;BME280;47007;49.252;8.904;2022-09-09T13:19:13;99394.56;;;23.05;76.94
10638;BME280;47007;49.252;8.904;2022-09-09T13:21:40;99398.94;;;22.76;81.82
10638;BME280;47007;49.252;8.904;2022-09-09T13:24:26;99404.59;;;22.64;83.98
10638;BME280;47007;49.252;8.904;2022-09-09T13:26:57;99401.13;;;22.58;83.05
10638;BME280;47007;49.252;8.904;2022-09-09T13:29:25;99408.16;;;22.34;83.33
10638;BME280;47007;49.252;8.904;2022-09-09T13:31:52;99398.63;;;21.86;86.18
10638;BME280;47007;49.252;8.904;2022-09-09T13:34:30;99420.16;;;21.71;88.93
10638;BME280;47007;49.252;8.904;2022-09-09T13:37:24;99431.47;;;21.58;89.17
10638;BME280;47007;49.252;8.904;2022-09-09T13:39:54;99448.34;;;21.33;97.41
10638;BME280;47007;49.252;8.904;2022-09-09T13:42:25;99461.78;;;20.54;100.00
10638;BME280;47007;49.252;8.904;2022-09-09T13:44:55;99452.91;;;19.72;100.00
10638;BME280;47007;49.252;8.904;2022-09-09T13:47:29;99466.03;;;18.92;100.00
10638;BME280;47007;49.252;8.904;2022-09-09T13:50:28;99452.09;;;18.45;100.00
10638;BME280;47007;49.252;8.904;2022-09-09T13:52:57;99466.81;;;18.25;100.00
10638;BME280;47007;49.252;8.904;2022-09-09T13:55:28;99452.75;;;17.90;100.00
10638;BME280;47007;49.252;8.904;2022-09-09T13:57:57;99458.19;;;17.95;100.00
10638;BME280;47007;49.252;8.904;2022-09-09T14:00:25;99439.94;;;18.09;100.00
10638;BME280;47007;49.252;8.904;2022-09-09T14:02:52;99440.66;;;18.49;100.00
10638;BME280;47007;49.252;8.904;2022-09-09T14:05:21;99445.00;;;19.06;100.00
10638;BME280;47007;49.252;8.904;2022-09-09T14:07:49;99450.03;;;19.57;100.00
10638;BME280;47007;49.252;8.904;2022-09-09T14:10:19;99427.81;;;19.89;100.00
10638;BME280;47007;49.252;8.904;2022-09-09T14:12:46;99432.41;;;20.20;100.00
10638;BME280;47007;49.252;8.904;2022-09-09T14:15:13;99430.72;;;20.41;100.00
10638;BME280;47007;49.252;8.904;2022-09-09T14:17:41;99435.59;;;20.44;100.00
10638;BME280;47007;49.252;8.904;2022-09-09T14:20:09;99429.22;;;20.55;100.00
10638;BME280;47007;49.252;8.904;2022-09-09T14:22:38;99354.50;;;20.72;100.00
10638;BME280;47007;49.252;8.904;2022-09-09T14:25:06;99417.78;;;21.95;100.00
10638;BME280;47007;49.252;8.904;2022-09-09T14:27:33;99430.00;;;22.99;100.00
10638;BME280;47007;49.252;8.904;2022-09-09T14:29:59;99430.00;;;22.38;91.92
10638;BME280;47007;49.252;8.904;2022-09-09T14:32:28;99428.69;;;21.42;100.00
10638;BME280;47007;49.252;8.904;2022-09-09T14:34:55;99387.00;;;20.61;100.00
10638;BME280;47007;49.252;8.904;2022-09-09T14:37:22;99391.78;;;20.54;100.00
10638;BME280;47007;49.252;8.904;2022-09-09T14:39:49;99392.59;;;20.22;100.00
10638;BME280;47007;49.252;8.904;2022-09-09T14:42:17;99424.56;;;20.14;100.00
10638;BME280;47007;49.252;8.904;2022-09-09T14:44:44;99424.31;;;20.15;100.00
10638;BME280;47007;49.252;8.904;2022-09-09T14:47:11;99416.91;;;20.32;100.00
10638;BME280;47007;49.252;8.904;2022-09-09T14:49:38;99392.66;;;20.27;100.00
10638;BME280;47007;49.252;8.904;2022-09-09T14:52:09;99401.72;;;20.48;100.00
10638;BME280;47007;49.252;8.904;2022-09-09T14:54:36;99401.78;;;20.58;100.00
10638;BME280;47007;49.252;8.904;2022-09-09T14:57:03;99401.28;;;20.66;100.00
10638;BME280;47007;49.252;8.904;2022-09-09T14:59:29;99398.59;;;20.61;100.00
10638;BME280;47007;49.252;8.904;2022-09-09T15:01:56;99406.72;;;20.71;100.00
10638;BME280;47007;49.252;8.904;2022-09-09T15:04:23;99410.75;;;20.69;100.00
10638;BME280;47007;49.252;8.904;2022-09-09T15:06:50;99374.81;;;20.53;100.00
10638;BME280;47007;49.252;8.904;2022-09-09T15:09:18;99394.56;;;20.64;100.00
10638;BME280;47007;49.252;8.904;2022-09-09T15:11:45;99402.16;;;20.72;100.00
10638;BME280;47007;49.252;8.904;2022-09-09T15:14:12;99404.34;;;20.75;100.00
10638;BME280;47007;49.252;8.904;2022-09-09T15:16:40;99420.50;;;20.80;100.00
10638;BME280;47007;49.252;8.904;2022-09-09T15:19:07;99412.88;;;20.67;100.00
10638;BME280;47007;49.252;8.904;2022-09-09T15:21:36;99406.88;;;20.55;100.00
10638;BME280;47007;49.252;8.904;2022-09-09T15:24:13;99397.41;;;20.47;100.00
10638;BME280;47007;49.252;8.904;2022-09-09T15:26:40;99423.00;;;20.50;100.00
10638;BME280;47007;49.252;8.904;2022-09-09T15:29:07;99409.63;;;20.33;100.00